• Join FlightAware (Why Join?)
  • Login
  • US Flag 
09:25AM EDT


 

Airport Tracker/Info


-or-


 

Live Flight TrackerFlight Track Log ✈ N143DE ✈ 26-Jan-2014 ✈ KRYY - KOPF

Flight Track Log - Related Links

Times and Time Zones

All times are in EST time to prevent confusion due to time zone crossing. See the N143DE flight status page for this flight to view local times or setup timezone preferences in your user account.

Time Position Orientation Groundspeed Altitude Reporting Facility
EST Latitude Longitude Course Direction KTS MPH feet Rate Location/Type
07:42AM 34.0000 -84.6333 203° Southwest 152 175 2,800  Level Atlanta TRACON
07:43AM 33.9667 -84.6500 203° Southwest 177 204 5,000 1,200 Climbing Atlanta TRACON
07:44AM 33.9333 -84.5833 121° Southeast 249 287 5,200  Climbing Atlanta TRACON
07:45AM 33.8833 -84.5167 132° Southeast 260 299 5,000  Descending Atlanta TRACON
07:46AM 33.8500 -84.4333 116° Southeast 256 295 5,300 420 Climbing Atlanta TRACON
07:47AM 33.7833 -84.4000 157° South 236 272 6,000 300 Climbing Atlanta TRACON
07:48AM 33.7167 -84.3833 168° South 229 264 6,000  Level Atlanta TRACON
07:49AM 33.6500 -84.3833 180° South 221 254 6,100  Climbing Atlanta TRACON
07:50AM 33.6000 -84.3833 180° South 232 267 6,100  Level Atlanta TRACON
07:51AM 33.5333 -84.4000 192° South 223 257 6,100  Level Atlanta TRACON
07:52AM 33.4667 -84.4000 180° South 222 255 6,100 420 Level Atlanta TRACON
07:53AM 33.4167 -84.4000 180° South 218 251 7,000 1,440 Climbing Atlanta TRACON
07:54AM 33.3408 -84.3497 151° Southeast 217 250 9,600 1,620 Climbing Atlanta Center
07:55AM 33.2908 -84.3122 148° Southeast 211 243 11,000 1,320 Climbing Atlanta Center
07:56AM 33.2367 -84.2722 161° South 225 259 12,300 1,560 Climbing Atlanta Center
07:57AM 33.1825 -84.2375 152° Southeast 225 259 14,200 1,620 Climbing Atlanta Center
07:58AM 33.1325 -84.2175 161° South 215 247 15,600 1,440 Climbing Atlanta Center
07:59AM 33.0783 -84.1975 163° South 210 242 17,100 1,320 Climbing Atlanta Center
08:00AM 33.0219 -84.1700 158° South 210 242 18,300 1,260 Climbing Atlanta Center
08:01AM 32.9675 -84.1528 165° South 210 242 19,700 1,200 Climbing Atlanta Center
08:02AM 32.9092 -84.1378 168° South 205 236 20,800 1,080 Climbing Atlanta Center
08:03AM 32.8550 -84.1156 161° South 205 236 21,900 1,020 Climbing Atlanta Center
08:04AM 32.7986 -84.0981 165° South 205 236 22,900 900 Climbing Atlanta Center
08:05AM 32.7444 -84.0733 159° South 205 236 23,800 840 Climbing Atlanta Center
08:06AM 32.6881 -84.0511 162° South 205 236 24,600 600 Climbing Atlanta Center
08:07AM 32.6294 -84.0242 159° South 210 242 25,000 240 Climbing Atlanta Center
08:08AM 32.5647 -83.9969 160° South 231 266 25,100  Climbing Atlanta Center
08:09AM 32.4981 -83.9725 163° South 242 278 25,000  Descending Atlanta Center
08:10AM 32.4292 -83.9453 162° South 253 291 25,100  Climbing Atlanta Center
08:11AM 32.3581 -83.9158 161° South 258 297 25,000 -60 Descending Atlanta Center
08:12AM 32.2914 -83.8867 160° South 264 304 25,000  Level Atlanta Center
08:14AM 32.1525 -83.8300 161° South 269 310 25,000  Level Jacksonville Center
08:15AM 32.0839 -83.8022 161° South 269 310 25,000  Level Jacksonville Center
08:16AM 32.0172 -83.7747 161° South 264 304 25,000  Level Jacksonville Center
08:17AM 31.9486 -83.7422 158° South 264 304 25,000  Level Jacksonville Center
08:18AM 31.8778 -83.7047 156° South 264 304 25,000  Level Jacksonville Center
08:19AM 31.8072 -83.6725 159° South 264 304 25,000  Level Jacksonville Center
08:20AM 31.7406 -83.6378 156° South 264 304 25,000  Level Jacksonville Center
08:21AM 31.6717 -83.6078 160° South 269 310 25,000  Level Jacksonville Center
08:22AM 31.6008 -83.5806 162° South 269 310 25,000  Level Jacksonville Center
08:23AM 31.5322 -83.5483 158° South 269 310 25,000  Level Jacksonville Center
08:24AM 31.4656 -83.5186 159° South 264 304 25,000  Level Jacksonville Center
08:25AM 31.3989 -83.4864 158° South 264 304 25,000  Level Jacksonville Center
08:26AM 31.3300 -83.4544 158° South 264 304 25,000  Level Jacksonville Center
08:27AM 31.2614 -83.4225 158° South 264 304 25,000  Level Jacksonville Center
08:28AM 31.1925 -83.3928 160° South 264 304 25,000  Level Jacksonville Center
08:29AM 31.1281 -83.3611 157° South 264 304 25,000  Level Jacksonville Center
08:30AM 31.0572 -83.3292 159° South 264 304 25,000  Level Jacksonville Center
08:31AM 31.0050 -83.3047 158° South 264 304 25,000  Level Jacksonville Center
08:32AM 30.9300 -83.2703 158° South 264 304 25,000  Level Jacksonville Center
08:33AM 30.8631 -83.2411 159° South 264 304 25,000  Level Jacksonville Center
08:34AM 30.7881 -83.2044 157° South 264 304 25,000  Level Jacksonville Center
08:35AM 30.7214 -83.1728 158° South 264 304 25,000  Level Jacksonville Center
08:36AM 30.6525 -83.1436 160° South 264 304 25,000  Level Jacksonville Center
08:37AM 30.5858 -83.1122 158° South 264 304 25,000  Level Jacksonville Center
08:38AM 30.5189 -83.0831 159° South 264 304 25,000  Level Jacksonville Center
08:39AM 30.4481 -83.0492 158° South 264 304 25,000  Level Jacksonville Center
08:40AM 30.3833 -83.0225 160° South 264 304 25,000  Level Jacksonville Center
08:41AM 30.3144 -82.9911 159° South 264 304 25,000  Level Jacksonville Center
08:42AM 30.2478 -82.9600 158° South 264 304 25,000  Level Jacksonville Center
08:43AM 30.1808 -82.9311 160° South 264 304 25,000  Level Jacksonville Center
08:44AM 30.1119 -82.8972 157° South 264 304 25,000  Level Jacksonville Center
08:45AM 30.0431 -82.8686 160° South 264 304 25,000  Level Jacksonville Center
08:46AM 29.9825 -82.8422 159° South 264 304 25,000  Level Jacksonville Center
08:47AM 29.9158 -82.8136 160° South 264 304 25,000  Level Jacksonville Center
08:48AM 29.8489 -82.7825 158° South 264 304 25,000  Level Jacksonville Center
08:49AM 29.7800 -82.7514 159° South 264 304 25,000  Level Jacksonville Center
08:50AM 29.7111 -82.7228 160° South 264 304 25,000  Level Jacksonville Center
08:51AM 29.6464 -82.6919 158° South 264 304 25,000  Level Jacksonville Center
08:52AM 29.5772 -82.6608 159° South 264 304 25,000  Level Jacksonville Center
08:53AM 29.5064 -82.6300 159° South 269 310 25,000  Level Jacksonville Center
08:54AM 29.4372 -82.5992 159° South 269 310 25,000  Level Jacksonville Center
08:55AM 29.3706 -82.5683 158° South 263 303 25,000  Level Jacksonville Center
08:56AM 29.3014 -82.5378 159° South 263 303 25,000  Level Jacksonville Center
08:57AM 29.2325 -82.5094 160° South 268 308 25,000  Level Jacksonville Center
08:58AM 29.1636 -82.4789 159° South 268 308 25,000  Level Jacksonville Center
08:59AM 29.0947 -82.4553 163° South 268 308 25,000  Level Jacksonville Center
09:00AM 29.0278 -82.4603 184° South 253 291 25,000  Level Jacksonville Center
09:01AM 28.9631 -82.4653 184° South 248 285 25,000  Level Jacksonville Center
09:02AM 28.8942 -82.4681 182° South 248 285 25,000  Level Jacksonville Center
09:03AM 28.8275 -82.4708 182° South 248 285 25,000  Level Jacksonville Center
09:04AM 28.7608 -82.4758 184° South 248 285 25,000  Level Jacksonville Center
09:05AM 28.6919 -82.4783 182° South 248 285 25,000  Level Jacksonville Center
09:06AM 28.6250 -82.4811 182° South 248 285 25,000  Level Jacksonville Center
09:07AM 28.5583 -82.4861 184° South 248 285 25,000  Level Jacksonville Center
09:08AM 28.4914 -82.4886 182° South 248 285 25,000  Level Jacksonville Center
09:09AM 28.4228 -82.4914 182° South 248 285 25,000  Level Jacksonville Center
09:11AM 28.2839 -82.4975 182° South 249 287 25,000  Level Miami Center
09:12AM 28.2169 -82.5014 183° South 255 293 25,000  Level Miami Center
09:13AM 28.1500 -82.5025 181° South 249 287 25,000  Level Miami Center
09:14AM 28.0811 -82.5061 183° South 249 287 25,000  Level Miami Center
09:15AM 28.0164 -82.5100 183° South 251 289 25,000  Level Miami Center
09:16AM 27.9453 -82.5111 181° South 251 289 25,000  Level Miami Center
09:17AM 27.8756 -82.4842 161° South 251 289 25,000  Level Miami Center
09:18AM 27.8056 -82.4572 161° South 256 295 25,000  Level Miami Center
09:19AM 27.7439 -82.4333 161° South 251 289 25,000  Level Miami Center
09:20AM 27.6761 -82.4089 162° South 251 289 25,000  Level Miami Center
09:21AM 27.5997 -82.3817 162° South 256 295 25,000  Level Miami Center
09:22AM 27.5297 -82.3572 163° South 263 303 25,000  Level Miami Center
09:23AM 27.4619 -82.3306 161° South 263 303 25,000  Level Miami Center
09:24AM 27.4003 -82.3089 163° South 258 297 25,000  Level Miami Center
09:25AM 27.3239 -82.2819 163° South 263 303 25,000  Level Miami Center
09:26AM 27.2603 -82.2581 162° South 257 296 25,000  Level Miami Center
09:27AM 27.1903 -82.2314 161° South 257 296 25,000  Level Miami Center
09:28AM 27.1306 -82.2075 160° South 255 293 25,000  Level Miami Center
09:29AM 27.0625 -82.1836 163° South 255 293 25,000  Level Miami Center
09:30AM 26.9864 -82.1592 164° South 261 300 25,000  Level Miami Center
09:31AM 26.9286 -82.1356 160° South 261 300 25,000  Level Miami Center
09:32AM 26.8608 -82.1114 162° South 261 300 25,000 -240 Level Miami Center
09:33AM 26.7906 -82.0875 163° South 261 300 24,600 -840 Descending Miami Center
09:34AM 26.7167 -82.0539 158° South 267 307 23,400 -1,020 Descending Miami Center
09:35AM 26.6567 -81.9792 132° Southeast 280 322 22,600 -960 Descending Miami Center
09:36AM 26.6414 -81.8808 100° East 282 325 21,500 -1,080 Descending Miami Center
09:37AM 26.5919 -81.7975 124° Southeast 302 348 20,500 -1,020 Descending Miami Center
09:38AM 26.5406 -81.7164 125° Southeast 312 359 19,500 -1,260 Descending Miami Center
09:39AM 26.4847 -81.6308 126° Southeast 312 359 18,000 -1,620 Descending Miami Center
09:40AM 26.4392 -81.5592 125° Southeast 300 345 16,300 -1,740 Descending Miami Center
09:41AM 26.3936 -81.4856 125° Southeast 295 339 14,600 -1,680 Descending Miami Center
09:42AM 26.3478 -81.4144 126° Southeast 290 334 13,000 -1,620 Descending Miami Center
09:43AM 26.3019 -81.3431 126° Southeast 290 334 11,400 -1,200 Descending Miami Center
09:44AM 26.2664 -81.2700 118° Southeast 280 322 10,700 -1,080 Descending Miami Center
09:45AM 26.2269 -81.1989 122° Southeast 275 316 9,300 -1,500 Descending Miami Center
09:46AM 26.1872 -81.1236 120° Southeast 275 316 7,800 -1,440 Descending Miami Center
09:47AM 26.1753 -81.1044 125° Southeast 280 322 7,500 -1,440 Descending Miami Center
09:47AM 26.1497 -81.0503 118° Southeast 275 316 6,400 -1,080 Descending Miami Center
09:48AM 26.1178 -80.9983 124° Southeast 262 302 6,000 -540 Descending Miami Center
09:48AM 26.1161 -80.9844 98° East 275 316 5,900 -900 Descending Miami Center
09:49AM 26.0903 -80.9350 120° Southeast 251 289 5,200 -900 Descending Miami Center
09:49AM 26.0847 -80.9164 108° East 265 305 5,000 -180 Descending Miami Center
09:50AM 26.0653 -80.8578 110° East 239 275 5,000 -240 Level Miami Center
09:50AM 26.0656 -80.8486 88° East 241 277 4,800 -900 Descending Miami Center
09:51AM 26.0400 -80.7878 115° Southeast 239 275 4,100 -840 Descending Miami Center
09:51AM 26.0403 -80.7783 88° East 236 272 4,000 -120 Descending Miami Center
09:52AM 26.0150 -80.7128 113° Southeast 230 265 4,000 -120 Level Miami Center
09:52AM 26.0192 -80.7108 23° Northeast 236 272 3,900 -480 Descending Miami Center
09:53AM 26.0103 -80.6572 100° East 234 269 3,600 -540 Descending Miami Center
09:53AM 26.0106 -80.6411 89° East 231 266 3,400 -600 Descending Miami Center
09:54AM 26.0017 -80.5761 99° East 236 272 3,000 -420 Descending Miami Center
09:54AM 26.0039 -80.5717 61° Northeast 226 260 3,000 -240 Level Miami Center
09:55AM 25.9972 -80.5067 96° East 218 251 2,800 -300 Descending Miami Center
09:55AM 25.9975 -80.5019 86° East 221 254 2,700 -660 Descending Miami Center
09:56AM 25.9742 -80.4297 110° East 241 277 2,100 -720 Descending Miami Center
09:56AM 25.9761 -80.4344 295° West 221 254 2,000 120 Descending Miami Center
09:57AM 25.9586 -80.3806 110° East 191 220 2,200 -540 Climbing Miami Center
09:58AM 25.9344 -80.3383 122° Southeast 150 173 1,100 -900 Descending Miami Center
09:59AM 25.9186 -80.3081 120° Southeast 123 142 500 -660 Descending Miami Center
10:01AM 25.9074 -80.2782 204° Southwest  Level Estimated
10:08AM 25.9074 -80.2782 204° Southwest  Level Estimated